Capitol Logistics 7458

Operating for MZN



TJSJ
Luis Munoz Marin International Airport
San Juan, PR
KCLT
Charlotte/Douglas International Airport
Charlotte, US

Activity Log

Date Flight Route Aircraft Duration
04/17/2021 CPX7458 ACONY3 PALDE DONQU Y185 RENAH Y355 NUCAR G446 PERIE AR7 PITRW STOCR3 B738 3h 16m

Route Details

Aircraft Information
Primary: Boeing 737-800BCF
Backup: Boeing 757-200SF
Route Data
Distance: 1285nm
Duration: 3h 29m
Recm'd Route: ACONY3 PALDE DONQU Y185 RENAH Y355 NUCAR G446 PERIE AR7 PITRW STOCR3
Origin Wx: TJSJ 020356Z 12006KT 10SM SCT026 27/23 A3010 RMK AO2 SLP189 T02720233 403060261
Dest. Wx: KCLT 020452Z 34004KT 10SM BKN075 23/19 A2996 RMK AO2 SLP135 T02280189 403390228
Notes: